WetterOnline ( https://www.wetteronline.de )

Wetter aktuell Halbemond

Aktuelles Wetter: Norderney (16m)

6-stündlich | Neueste Meldungen
Ortszeit Temperatur Wetter
Mo, 16.05. 2:00 13.5° C bewölkt
So, 15.05. 20:00 12.8° C fast wolkenlos
So, 15.05. 14:00 13.3° C fast wolkenlos
So, 15.05. 8:00 11.2° C fast wolkenlos
So, 15.05. 2:00 11.3° C wolkenlos
Sa, 14.05. 20:00 13.3° C wolkenlos
Sa, 14.05. 14:00 14.4° C wolkenlos
Sa, 14.05. 8:00 12.5° C bewölkt
Ortszeit Temperatur Wetter
Mo, 16.05. 6:30 11.6° C wolkig
Mo, 16.05. 6:20 11.6° C wolkig
Mo, 16.05. 6:10 11.5° C wolkig
Mo, 16.05. 6:00 11.5° C wolkig
Mo, 16.05. 5:50 11.5° C wolkig
Mo, 16.05. 5:40 11.6° C bedeckt
Mo, 16.05. 5:30 11.8° C wolkig
Mo, 16.05. 5:00 11.8° C leicht bewölkt
Mo, 16.05. 4:30 12.0° C wolkig
Mo, 16.05. 4:00 12.3° C wolkig
Mo, 16.05. 3:30 12.4° C leicht bewölkt
Ortszeit Relative Feuchte Sichtweite
Mo, 16.05. 2:00 77% 55 km
So, 15.05. 20:00 83% 30 km
So, 15.05. 14:00 80% 27 km
So, 15.05. 8:00 89% 18 km
So, 15.05. 2:00 85% 24 km
Sa, 14.05. 20:00 77% 25 km
Sa, 14.05. 14:00 75% 27 km
Sa, 14.05. 8:00 83% 18 km
Ortszeit Relative Feuchte Sichtweite
Mo, 16.05. 6:30 72% 60 km
Mo, 16.05. 6:20 72% -
Mo, 16.05. 6:10 73% -
Mo, 16.05. 6:00 73% 55 km
Mo, 16.05. 5:50 73% -
Mo, 16.05. 5:40 73% -
Mo, 16.05. 5:30 72% 60 km
Mo, 16.05. 5:00 73% 55 km
Mo, 16.05. 4:30 73% 55 km
Mo, 16.05. 4:00 73% >70 km
Mo, 16.05. 3:30 75% 55 km
Ortszeit Niederschlagsmenge Niederschlagsart
Mo, 16.05. 2:00 0.0 l/m2 in 6 Std. -
So, 15.05. 20:00 0.0 l/m2 in 12 Std. -
So, 15.05. 14:00 0.0 l/m2 in 6 Std. -
So, 15.05. 8:00 0.0 l/m2 in 12 Std. -
So, 15.05. 2:00 0.0 l/m2 in 6 Std. -
Sa, 14.05. 20:00 0.0 l/m2 in 12 Std. -
Sa, 14.05. 14:00 0.0 l/m2 in 6 Std. -
Sa, 14.05. 8:00 0.0 l/m2 in 12 Std. -
Ortszeit Niederschlagsmenge Niederschlagsart
Mo, 16.05. 6:30 0.0 l/m2 in 1 Std. -
Mo, 16.05. 6:20 keine Meldung -
Mo, 16.05. 6:10 keine Meldung -
Mo, 16.05. 6:00 0.0 l/m2 in 1 Std. -
Mo, 16.05. 5:50 keine Meldung -
Mo, 16.05. 5:40 keine Meldung -
Mo, 16.05. 5:30 0.0 l/m2 in 1 Std. -
Mo, 16.05. 5:00 0.0 l/m2 in 1 Std. -
Mo, 16.05. 4:30 0.0 l/m2 in 1 Std. -
Mo, 16.05. 4:00 0.0 l/m2 in 1 Std. -
Mo, 16.05. 3:30 0.0 l/m2 in 1 Std. -
Ortszeit Stärke Spitze Richtung
km/h Bft. km/h Grad Sektor
Mo, 16.05. 2:00 17 3 37 100° O
So, 15.05. 20:00 31 5 41 60° NO
So, 15.05. 14:00 28 4 31 50° NO
So, 15.05. 8:00 7 2 14 110° O
So, 15.05. 2:00 11 2 14 30° NO
Sa, 14.05. 20:00 13 3 22 320° NW
Sa, 14.05. 14:00 18 3 32 290° W
Sa, 14.05. 8:00 28 4 44 280° W
Ortszeit Stärke Spitze Richtung
km/h Bft. km/h Grad Sektor
Mo, 16.05. 6:30 18 3 32 100° O
Mo, 16.05. 6:20 18 3 - 100° O
Mo, 16.05. 6:10 18 3 - 100° O
Mo, 16.05. 6:00 14 3 32 100° O
Mo, 16.05. 5:50 14 3 - 100° O
Mo, 16.05. 5:40 17 3 - 100° O
Mo, 16.05. 5:30 17 3 31 100° O
Mo, 16.05. 5:00 18 3 32 100° O
Mo, 16.05. 4:30 18 3 32 100° O
Mo, 16.05. 4:00 19 3 35 100° O
Mo, 16.05. 3:30 17 3 31 100° O
Ortszeit Untergrenze Bedeckung Gattung
total tief tief mittel hoch
Mo, 16.05. 2:00 5400 m 8/8 5/8 - - -
So, 15.05. 20:00 9000 m 2/8 0/8 - - -
So, 15.05. 14:00 120 m 1/8 1/8 - - -
So, 15.05. 8:00 9000 m 1/8 0/8 - - -
So, 15.05. 2:00 - 0/8 0/8 - - -
Sa, 14.05. 20:00 - 0/8 0/8 - - -
Sa, 14.05. 14:00 - 0/8 0/8 - - -
Sa, 14.05. 8:00 5700 m 7/8 7/8 - - -
Ortszeit Bedeckungsgrad in Achtel und Wolkenuntergrenze
Mo, 16.05. 6:30 6(6000m)
Mo, 16.05. 6:20 6(6000m)
Mo, 16.05. 6:10 5
Mo, 16.05. 6:00 2(5700m) 8(9000m)
Mo, 16.05. 5:50 2(5700m) 8(9000m)
Mo, 16.05. 5:40 8
Mo, 16.05. 5:30 8(9000m)
Mo, 16.05. 5:00 2(9000m) 5(10500m)
Mo, 16.05. 4:30 8(9000m)
Mo, 16.05. 4:00 7(9000m)
Mo, 16.05. 3:30 3(9000m)
Ortszeit Luftdruck NN (hPa) Tendenz (hPa in 3 Std.)
Mo, 16.05. 2:00 1019 - 0,8
So, 15.05. 20:00 1020 - 1,2
So, 15.05. 14:00 1022 - 0,6
So, 15.05. 8:00 1023 + 0,4
So, 15.05. 2:00 1022 0,0
Sa, 14.05. 20:00 1022 + 0,2
Sa, 14.05. 14:00 1022 + 1,4
Sa, 14.05. 8:00 1019 + 1,5
Ortszeit Luftdruck NN (hPa) Tendenz (hPa in 3 Std.)
Mo, 16.05. 6:30 1016 - 1,3
Mo, 16.05. 6:20 1016 keine Meldung
Mo, 16.05. 6:10 1017 keine Meldung
Mo, 16.05. 6:00 1017 - 1,4
Mo, 16.05. 5:50 1017 keine Meldung
Mo, 16.05. 5:40 1017 keine Meldung
Mo, 16.05. 5:30 1017 - 1,7
Mo, 16.05. 5:00 1017 - 1,5
Mo, 16.05. 4:30 1017 - 1,3
Mo, 16.05. 4:00 1018 - 1,2
Mo, 16.05. 3:30 1018 - 1,2
Ortszeit Schneehöhe (cm)
Mo, 16.05. 2:00 0
So, 15.05. 20:00 0
So, 15.05. 14:00 0
So, 15.05. 8:00 0
So, 15.05. 2:00 0
Sa, 14.05. 20:00 0
Sa, 14.05. 14:00 0
Sa, 14.05. 8:00 0
Ortszeit Schneehöhe (cm)
Mo, 16.05. 6:30 0
Mo, 16.05. 6:20 0
Mo, 16.05. 6:10 0
Mo, 16.05. 6:00 0
Mo, 16.05. 5:50 0
Mo, 16.05. 5:40 0
Mo, 16.05. 5:30 0
Mo, 16.05. 5:00 0
Mo, 16.05. 4:30 0
Mo, 16.05. 4:00 0
Mo, 16.05. 3:30 0
Link zu dieser Seite / Seite empfehlen

Das Wetter in ...